createdAt,value
2019-03-03T00:04:24.022Z,17.95
2019-03-03T00:10:19.013Z,17.84
2019-03-03T00:16:14.002Z,20.37
2019-03-03T00:22:09.005Z,19.66
2019-03-03T00:28:03.994Z,19.17
2019-03-03T00:33:59.007Z,16.91
2019-03-03T00:39:54.051Z,17.77
2019-03-03T00:45:49.040Z,17.34
2019-03-03T00:51:44.060Z,16.33
2019-03-03T00:57:39.036Z,16.03
2019-03-03T01:03:34.012Z,16.6
2019-03-03T01:09:29.018Z,15.11
2019-03-03T01:15:24.047Z,18.1
2019-03-03T01:21:19.042Z,20.94
2019-03-03T01:27:14.076Z,19.64
2019-03-03T01:33:09.036Z,22.27
2019-03-03T01:39:04.043Z,22.98
2019-03-03T01:44:59.055Z,22.79
2019-03-03T01:50:54.061Z,22.77
2019-03-03T01:56:49.079Z,19.95
2019-03-03T02:02:44.067Z,19.86
2019-03-03T02:08:39.056Z,21
2019-03-03T02:14:34.103Z,22.62
2019-03-03T02:20:29.075Z,21.07
2019-03-03T02:26:24.088Z,22.77
2019-03-03T02:32:19.095Z,22.48
2019-03-03T02:38:14.083Z,21.75
2019-03-03T02:44:09.085Z,20.93
2019-03-03T02:50:04.089Z,17.27
2019-03-03T02:55:59.106Z,16.85
2019-03-03T03:01:54.126Z,16.61
2019-03-03T03:07:49.125Z,18.72
2019-03-03T03:13:44.123Z,17.78
2019-03-03T03:19:39.137Z,17.34
2019-03-03T03:25:34.129Z,15.37
2019-03-03T03:31:29.119Z,13.17
2019-03-03T03:37:24.167Z,13.98
2019-03-03T03:43:19.135Z,13.23
2019-03-03T03:49:14.135Z,14.22
2019-03-03T03:55:09.119Z,14.58
2019-03-03T04:01:04.130Z,15.13
2019-03-03T04:06:59.140Z,17.35
2019-03-03T04:12:54.137Z,17.31
2019-03-03T04:18:49.150Z,15.11
2019-03-03T04:24:44.164Z,15.58
2019-03-03T04:30:39.135Z,14.64
2019-03-03T04:36:34.136Z,14.99
2019-03-03T04:42:29.140Z,15.99
2019-03-03T04:48:24.170Z,16.97
2019-03-03T04:54:19.163Z,15.77
2019-03-03T05:00:14.184Z,17.17
2019-03-03T05:06:09.160Z,17.55
2019-03-03T05:12:04.187Z,17
2019-03-03T05:17:59.181Z,17.63
2019-03-03T05:23:54.175Z,32.96
2019-03-03T05:29:49.220Z,17.55
2019-03-03T05:35:44.208Z,13.9
2019-03-03T05:41:39.254Z,16.07
2019-03-03T05:47:34.186Z,14.81
2019-03-03T05:53:29.247Z,14.6
2019-03-03T05:59:24.226Z,14.35
2019-03-03T06:05:19.183Z,15.58
2019-03-03T06:11:14.197Z,15.95
2019-03-03T06:17:09.202Z,16.49
2019-03-03T06:23:04.191Z,15.8
2019-03-03T06:28:59.191Z,15.81
2019-03-03T06:34:54.199Z,15.58
2019-03-03T06:40:49.197Z,15.98
2019-03-03T06:46:44.193Z,15.82
2019-03-03T06:52:39.219Z,16.34
2019-03-03T06:58:34.225Z,15.48
2019-03-03T07:04:29.233Z,13.3
2019-03-03T07:10:24.219Z,12.83
2019-03-03T07:16:19.238Z,12.8
2019-03-03T07:22:14.269Z,13.37
2019-03-03T07:28:09.263Z,13.81
2019-03-03T07:34:04.232Z,15.68
2019-03-03T07:39:59.229Z,17.74
2019-03-03T07:45:54.286Z,18.93
2019-03-03T07:51:49.242Z,20.46
2019-03-03T07:57:44.251Z,20.6
2019-03-03T08:03:39.255Z,20.03
2019-03-03T08:09:34.244Z,21.48
2019-03-03T08:15:29.264Z,22.07
2019-03-03T08:21:24.249Z,23.44
2019-03-03T08:27:19.250Z,24.7
2019-03-03T08:33:14.266Z,24.89
2019-03-03T08:39:09.260Z,24.32
2019-03-03T08:45:04.252Z,24.73
2019-03-03T08:50:59.289Z,20.54
2019-03-03T08:56:54.341Z,25.12
2019-03-03T09:02:49.281Z,25.89
2019-03-03T09:08:44.314Z,24.13
2019-03-03T09:14:39.291Z,24.88
2019-03-03T09:20:34.336Z,26.02
2019-03-03T09:26:29.303Z,27.31
2019-03-03T09:32:24.291Z,25.93
2019-03-03T09:38:19.322Z,26.11
2019-03-03T09:44:14.308Z,22.65
2019-03-03T09:50:09.294Z,27.33
2019-03-03T09:56:04.309Z,30
2019-03-03T10:01:59.301Z,27.83
2019-03-03T10:07:54.377Z,25.45
2019-03-03T10:13:49.310Z,26.85
2019-03-03T10:19:44.347Z,25.38
2019-03-03T10:25:39.361Z,26.23
2019-03-03T10:31:34.330Z,20.56
2019-03-03T10:37:29.328Z,22.7
2019-03-03T10:43:24.340Z,21.19
2019-03-03T10:49:19.370Z,22.31
2019-03-03T10:55:14.365Z,21.95
2019-03-03T11:01:09.399Z,24.81
2019-03-03T11:07:04.357Z,19.66
2019-03-03T11:12:59.359Z,22.19
2019-03-03T11:18:56.125Z,22.11
2019-03-03T11:24:49.432Z,23.2
2019-03-03T11:30:44.361Z,21.22
2019-03-03T11:36:39.351Z,20.11
2019-03-03T11:42:34.355Z,18.11
2019-03-03T11:48:29.368Z,19.36
2019-03-03T11:54:24.424Z,21.77
2019-03-03T12:00:19.361Z,17.93
2019-03-03T12:06:14.365Z,32.13
2019-03-03T12:12:09.380Z,16.87
2019-03-03T12:18:04.372Z,21.62
2019-03-03T12:23:59.395Z,17.48
2019-03-03T12:29:54.366Z,14.86
2019-03-03T12:35:49.444Z,15.52
2019-03-03T12:41:44.429Z,14.5
2019-03-03T12:47:39.399Z,15.98
2019-03-03T12:53:34.389Z,15
2019-03-03T12:59:29.467Z,12.16
2019-03-03T13:05:24.430Z,16.58
2019-03-03T13:11:19.405Z,15.45
2019-03-03T13:17:14.418Z,21.63
2019-03-03T13:23:09.415Z,26.07
2019-03-03T13:29:04.424Z,30.1
2019-03-03T13:34:59.440Z,20.56
2019-03-03T13:40:54.417Z,12.79
2019-03-03T13:46:49.416Z,32.2
2019-03-03T13:52:44.460Z,11.87
2019-03-03T13:58:39.452Z,27.27
2019-03-03T14:04:34.470Z,11.58
2019-03-03T14:10:29.436Z,23.68
2019-03-03T14:16:24.527Z,13.34
2019-03-03T14:22:19.461Z,7.52
2019-03-03T14:28:14.450Z,15.57
2019-03-03T14:34:09.535Z,7.61
2019-03-03T14:40:04.460Z,28.12
2019-03-03T14:45:59.497Z,15.72
2019-03-03T14:51:54.492Z,22.25
2019-03-03T14:57:49.458Z,14.05
2019-03-03T15:03:44.533Z,20.77
2019-03-03T15:09:39.487Z,9.33
2019-03-03T15:15:34.461Z,7.67
2019-03-03T15:21:29.503Z,17.49
2019-03-03T15:27:24.539Z,17.35
2019-03-03T15:33:19.483Z,11.46
2019-03-03T15:39:14.494Z,8.87
2019-03-03T15:45:09.509Z,8.49
2019-03-03T15:51:04.499Z,6.74
2019-03-03T15:56:59.496Z,23.16
2019-03-03T16:02:54.509Z,31.3
2019-03-03T16:08:49.531Z,10.15
2019-03-03T16:14:44.498Z,17.3
2019-03-03T16:20:39.522Z,18.66
2019-03-03T16:26:34.516Z,25.37
2019-03-03T16:32:29.522Z,17.52
2019-03-03T16:38:24.518Z,9.67
2019-03-03T16:44:19.538Z,4.57
2019-03-03T16:50:14.531Z,4.04
2019-03-03T16:56:09.561Z,4.76
2019-03-03T17:02:04.552Z,7.72
2019-03-03T17:07:59.538Z,6.32
2019-03-03T17:13:54.547Z,6.75
2019-03-03T17:19:49.544Z,10.9
2019-03-03T17:25:44.549Z,8.44
2019-03-03T17:31:39.564Z,6.83
2019-03-03T17:37:34.551Z,7.2
2019-03-03T17:43:29.562Z,23.12
2019-03-03T17:49:24.629Z,6.35
2019-03-03T17:55:19.570Z,9.7
2019-03-03T18:01:14.585Z,12.51
2019-03-03T18:07:09.579Z,13.88
2019-03-03T18:13:04.583Z,7.37
2019-03-03T18:18:59.582Z,6.61
2019-03-03T18:24:54.593Z,7.53
2019-03-03T18:30:49.625Z,7.19
2019-03-03T18:36:44.637Z,9.5
2019-03-03T18:42:39.616Z,20.43
2019-03-03T18:48:34.635Z,22.63
2019-03-03T18:54:29.605Z,22.11
2019-03-03T19:00:24.644Z,26.02
2019-03-03T19:06:19.605Z,21.12
2019-03-03T19:12:14.608Z,16.49
2019-03-03T19:18:09.638Z,21.53
2019-03-03T19:24:04.659Z,9.49
2019-03-03T19:29:59.665Z,11.62
2019-03-03T19:35:54.629Z,11.6
2019-03-03T19:41:49.640Z,9.86
2019-03-03T19:47:44.676Z,10.35
2019-03-03T19:53:39.628Z,9.36
2019-03-03T19:59:34.650Z,9.79
2019-03-03T20:05:29.648Z,9.36
2019-03-03T20:11:24.677Z,9.84
2019-03-03T20:17:19.630Z,10.13
2019-03-03T20:23:14.674Z,11.14
2019-03-03T20:29:09.637Z,14.86
2019-03-03T20:35:04.749Z,10.44
2019-03-03T20:40:59.661Z,9.3
2019-03-03T20:46:54.660Z,9.6
2019-03-03T20:52:49.669Z,10.37
2019-03-03T20:58:44.668Z,9.55
2019-03-03T21:04:39.705Z,10.59
2019-03-03T21:10:34.686Z,10.3
2019-03-03T21:16:29.700Z,11.78
2019-03-03T21:22:24.680Z,14.34
2019-03-03T21:28:19.693Z,13.22
2019-03-03T21:34:14.718Z,12.73
2019-03-03T21:40:09.669Z,12.28
2019-03-03T21:46:04.675Z,11.68
2019-03-03T21:51:59.745Z,14.76
2019-03-03T21:57:54.734Z,14.76
2019-03-03T22:03:49.705Z,11.75
2019-03-03T22:09:44.684Z,15.78
2019-03-03T22:15:39.697Z,14.52
2019-03-03T22:21:34.695Z,15.46
2019-03-03T22:27:29.743Z,13.94
2019-03-03T22:33:24.705Z,14.04
2019-03-03T22:39:19.700Z,9.92
2019-03-03T22:45:14.711Z,13.34
2019-03-03T22:51:09.809Z,12.8
2019-03-03T22:57:04.732Z,22.37
2019-03-03T23:02:59.720Z,17.6
2019-03-03T23:08:54.777Z,18.88
2019-03-03T23:14:49.784Z,14.79
2019-03-03T23:20:44.805Z,9.42
2019-03-03T23:26:39.781Z,8.68
2019-03-03T23:32:34.772Z,10.01
2019-03-03T23:38:29.760Z,10.41
2019-03-03T23:44:24.750Z,9.93
2019-03-03T23:50:19.795Z,10.67
2019-03-03T23:56:14.856Z,11.56
